Time;durP1;ratioP1;P1;durP2;ratioP2;P2;SDS_P1;SDS_P2;PMS_P1;PMS_P2;Temp;Humidity;BMP_temperature;BMP_pressure;BME280_temperature;BME280_humidity;BME280_pressure;Samples;Min_cycle;Max_cycle;Signal;HPM_P1;HPM_P2
2021/04/27 00:00:04;;;;;;;2.78;2.05;;;;;;;;;;5001598;28;20369;-58
2021/04/27 00:02:33;;;;;;;4.95;2.35;;;;;;;;;;5006652;28;20037;-58
2021/04/27 00:05:01;;;;;;;2.60;1.88;;;;;;;;;;5002170;28;20037;-58
2021/04/27 00:07:27;;;;;;;3.72;2.33;;;;;;;;;;5003726;28;20022;-59
2021/04/27 00:09:53;;;;;;;7.30;2.50;;;;;;;;;;4999728;28;20056;-59
2021/04/27 00:12:18;;;;;;;3.63;2.80;;;;;;;;;;5004540;28;20109;-58
2021/04/27 00:14:46;;;;;;;4.53;2.50;;;;;;;;;;5002550;28;20037;-58
2021/04/27 00:17:15;;;;;;;10.43;2.85;;;;;;;;;;5006492;28;21059;-59
2021/04/27 00:19:40;;;;;;;3.95;2.45;;;;;;;;;;5000715;28;20030;-58
2021/04/27 00:22:05;;;;;;;8.90;2.85;;;;;;;;;;5003455;28;21595;-57
2021/04/27 00:24:31;;;;;;;6.13;2.97;;;;;;;;;;4991024;28;20115;-58
2021/04/27 00:26:58;;;;;;;3.45;2.47;;;;;;;;;;4997129;28;20029;-58
2021/04/27 00:29:27;;;;;;;3.90;2.53;;;;;;;;;;5001860;28;20021;-58
2021/04/27 00:31:53;;;;;;;6.30;2.13;;;;;;;;;;4999412;28;20162;-58
2021/04/27 00:34:18;;;;;;;4.97;2.58;;;;;;;;;;5000283;28;20035;-58
2021/04/27 00:36:44;;;;;;;4.50;2.47;;;;;;;;;;4998318;28;20034;-60
2021/04/27 00:39:09;;;;;;;3.33;1.98;;;;;;;;;;5000511;28;21995;-58
2021/04/27 00:41:35;;;;;;;4.45;2.30;;;;;;;;;;4999473;28;20034;-58
2021/04/27 00:44:04;;;;;;;4.28;2.08;;;;;;;;;;5000184;28;20038;-58
2021/04/27 00:46:31;;;;;;;3.45;2.58;;;;;;;;;;4999841;28;20053;-58
2021/04/27 00:48:57;;;;;;;6.45;3.08;;;;;;;;;;4999897;28;20033;-58
2021/04/27 00:51:25;;;;;;;4.70;2.60;;;;;;;;;;4997568;28;20049;-59
2021/04/27 00:53:51;;;;;;;3.70;2.33;;;;;;;;;;5000911;28;20045;-58
2021/04/27 00:56:18;;;;;;;3.55;2.33;;;;;;;;;;4984182;28;20033;-57
2021/04/27 00:58:45;;;;;;;4.15;2.00;;;;;;;;;;5002159;28;20108;-59
2021/04/27 01:01:13;;;;;;;4.18;2.67;;;;;;;;;;5001599;28;20037;-59
2021/04/27 01:03:39;;;;;;;7.75;2.40;;;;;;;;;;5001117;28;20033;-58
2021/04/27 01:06:05;;;;;;;3.65;2.20;;;;;;;;;;4999477;28;20037;-58
2021/04/27 01:08:44;;;;;;;6.97;2.58;;;;;;;;;;5000450;28;20029;-58
2021/04/27 01:11:15;;;;;;;5.20;3.05;;;;;;;;;;4999085;28;20121;-58
2021/04/27 01:13:40;;;;;;;4.53;2.65;;;;;;;;;;4989013;28;20052;-59
2021/04/27 01:16:09;;;;;;;4.63;2.80;;;;;;;;;;5000827;28;20033;-57
2021/04/27 01:18:36;;;;;;;3.55;2.67;;;;;;;;;;4999385;28;20022;-59
2021/04/27 01:21:06;;;;;;;3.83;2.17;;;;;;;;;;4999248;28;20761;-59
2021/04/27 01:23:43;;;;;;;5.18;2.03;;;;;;;;;;4999564;28;20254;-59
2021/04/27 01:26:12;;;;;;;4.53;2.50;;;;;;;;;;5001848;28;21981;-59
2021/04/27 01:28:38;;;;;;;3.60;2.63;;;;;;;;;;4981424;28;20516;-59
2021/04/27 01:31:06;;;;;;;4.53;2.80;;;;;;;;;;5000774;28;20081;-59
2021/04/27 01:33:35;;;;;;;3.50;2.38;;;;;;;;;;5013571;28;20038;-57
2021/04/27 01:36:03;;;;;;;7.30;3.13;;;;;;;;;;5000111;28;20100;-59
2021/04/27 01:38:34;;;;;;;9.18;3.35;;;;;;;;;;4998138;28;20420;-57
2021/04/27 01:41:03;;;;;;;6.15;2.92;;;;;;;;;;4982724;28;20111;-59
2021/04/27 01:43:29;;;;;;;9.50;2.60;;;;;;;;;;4998542;28;20030;-59
2021/04/27 01:46:07;;;;;;;6.57;2.97;;;;;;;;;;5000209;28;20033;-57
2021/04/27 01:48:33;;;;;;;6.25;2.47;;;;;;;;;;4998437;28;20076;-58
2021/04/27 01:51:04;;;;;;;3.42;2.63;;;;;;;;;;4998798;28;20036;-57
2021/04/27 01:53:34;;;;;;;3.15;2.60;;;;;;;;;;4988242;28;20037;-57
2021/04/27 01:56:02;;;;;;;7.85;2.80;;;;;;;;;;4986751;28;20044;-57
2021/04/27 01:58:28;;;;;;;15.32;3.15;;;;;;;;;;4999229;28;20037;-59
2021/04/27 02:00:54;;;;;;;7.50;3.38;;;;;;;;;;4999434;28;20088;-59
2021/04/27 02:03:22;;;;;;;3.65;2.65;;;;;;;;;;4981161;28;20060;-59
2021/04/27 02:05:47;;;;;;;4.20;2.83;;;;;;;;;;5005145;28;20062;-57
2021/04/27 02:08:15;;;;;;;12.32;2.92;;;;;;;;;;5001046;28;20108;-57
2021/04/27 02:10:47;;;;;;;5.88;3.25;;;;;;;;;;4999614;28;20440;-57
2021/04/27 02:13:14;;;;;;;8.75;3.28;;;;;;;;;;4985397;28;20533;-58
2021/04/27 02:15:45;;;;;;;9.40;2.63;;;;;;;;;;5004992;28;20677;-57
2021/04/27 02:18:11;;;;;;;4.90;2.88;;;;;;;;;;4999712;28;20137;-58
2021/04/27 02:20:39;;;;;;;8.35;3.38;;;;;;;;;;5006236;28;20770;-57
2021/04/27 02:23:05;;;;;;;6.38;2.88;;;;;;;;;;4993298;28;20037;-58
2021/04/27 02:25:31;;;;;;;5.03;2.70;;;;;;;;;;4998454;28;20033;-58
2021/04/27 02:27:56;;;;;;;9.38;2.83;;;;;;;;;;4987303;28;21935;-58
2021/04/27 02:30:25;;;;;;;7.53;3.17;;;;;;;;;;5004572;28;20116;-58
2021/04/27 02:32:55;;;;;;;5.28;2.63;;;;;;;;;;4998138;28;20033;-58
2021/04/27 02:35:23;;;;;;;6.25;2.60;;;;;;;;;;4999208;28;20048;-58
2021/04/27 02:37:50;;;;;;;5.95;2.95;;;;;;;;;;5006485;28;20072;-58
2021/04/27 02:40:19;;;;;;;4.20;2.60;;;;;;;;;;5004885;28;20037;-58
2021/04/27 02:42:51;;;;;;;6.93;3.50;;;;;;;;;;5007180;28;20116;-58
2021/04/27 02:45:17;;;;;;;5.10;3.40;;;;;;;;;;5005489;28;20030;-58
2021/04/27 02:47:47;;;;;;;5.97;2.90;;;;;;;;;;5001590;28;20030;-58
2021/04/27 02:50:14;;;;;;;5.60;2.97;;;;;;;;;;5000387;28;20064;-58
2021/04/27 02:52:41;;;;;;;11.65;3.15;;;;;;;;;;4999620;28;20138;-58
2021/04/27 02:55:12;;;;;;;3.90;2.80;;;;;;;;;;5002071;28;20038;-58
2021/04/27 02:57:39;;;;;;;7.88;3.30;;;;;;;;;;5004378;28;20796;-59
2021/04/27 03:00:06;;;;;;;3.25;2.42;;;;;;;;;;5004144;28;20056;-59
2021/04/27 03:02:31;;;;;;;6.53;2.58;;;;;;;;;;5002099;28;20034;-59
2021/04/27 03:04:57;;;;;;;6.63;2.92;;;;;;;;;;4989855;28;20095;-58
2021/04/27 03:07:23;;;;;;;4.63;2.50;;;;;;;;;;5001472;28;20134;-58
2021/04/27 03:09:53;;;;;;;4.07;3.22;;;;;;;;;;5003185;28;20034;-58
2021/04/27 03:12:21;;;;;;;6.32;2.95;;;;;;;;;;5000558;28;20088;-58
2021/04/27 03:14:47;;;;;;;3.50;2.95;;;;;;;;;;5003408;28;20037;-58
2021/04/27 03:17:14;;;;;;;5.40;3.00;;;;;;;;;;5003199;28;21074;-58
2021/04/27 03:19:42;;;;;;;5.47;3.05;;;;;;;;;;5000191;28;20037;-58
2021/04/27 03:22:10;;;;;;;7.47;3.63;;;;;;;;;;4999970;28;20067;-58
2021/04/27 03:24:38;;;;;;;4.20;2.95;;;;;;;;;;5000260;28;20033;-58
2021/04/27 03:27:03;;;;;;;4.85;3.17;;;;;;;;;;5001138;28;20022;-58
2021/04/27 03:29:34;;;;;;;6.53;3.25;;;;;;;;;;5001625;28;20136;-58
2021/04/27 03:31:59;;;;;;;4.68;2.70;;;;;;;;;;5001534;28;20044;-58
2021/04/27 03:34:24;;;;;;;6.68;2.95;;;;;;;;;;5001577;28;21073;-58
2021/04/27 03:36:52;;;;;;;3.92;2.40;;;;;;;;;;5000777;28;20053;-58
2021/04/27 03:39:20;;;;;;;7.07;3.30;;;;;;;;;;5000995;28;20045;-58
2021/04/27 03:41:48;;;;;;;5.00;3.05;;;;;;;;;;5001285;28;20068;-58
2021/04/27 03:44:14;;;;;;;3.50;2.58;;;;;;;;;;4982414;28;20083;-58
2021/04/27 03:46:40;;;;;;;7.45;3.75;;;;;;;;;;5000749;28;20034;-58
2021/04/27 03:49:10;;;;;;;4.97;2.55;;;;;;;;;;5008749;28;20079;-58
2021/04/27 03:51:38;;;;;;;6.40;2.90;;;;;;;;;;5006186;28;20029;-58
2021/04/27 03:54:07;;;;;;;9.05;3.53;;;;;;;;;;5005978;28;21456;-58
2021/04/27 03:56:34;;;;;;;6.95;2.83;;;;;;;;;;5002036;28;20544;-58
2021/04/27 03:59:00;;;;;;;8.13;3.63;;;;;;;;;;5004607;28;20049;-58
2021/04/27 04:01:29;;;;;;;10.27;3.22;;;;;;;;;;5001211;28;20033;-58
2021/04/27 04:03:54;;;;;;;5.80;2.92;;;;;;;;;;5001590;28;20121;-58
2021/04/27 04:06:22;;;;;;;5.85;3.70;;;;;;;;;;4983430;28;20045;-58
2021/04/27 04:08:50;;;;;;;7.78;3.58;;;;;;;;;;5000763;28;20116;-59
2021/04/27 04:11:19;;;;;;;6.05;3.70;;;;;;;;;;5016620;28;20053;-59
2021/04/27 04:13:47;;;;;;;7.20;3.92;;;;;;;;;;5000091;28;20140;-59
2021/04/27 04:16:17;;;;;;;5.63;3.35;;;;;;;;;;5001555;28;20029;-58
2021/04/27 04:18:45;;;;;;;4.88;2.58;;;;;;;;;;4999455;28;21191;-60
2021/04/27 04:21:13;;;;;;;6.25;3.50;;;;;;;;;;4984196;28;20136;-57
2021/04/27 04:23:42;;;;;;;6.13;3.53;;;;;;;;;;4999734;28;20115;-57
2021/04/27 04:26:08;;;;;;;8.20;3.70;;;;;;;;;;4999636;28;20580;-57
2021/04/27 04:28:33;;;;;;;7.10;3.65;;;;;;;;;;5001347;28;20033;-57
2021/04/27 04:31:03;;;;;;;7.18;3.85;;;;;;;;;;4999523;28;20037;-57
2021/04/27 04:33:31;;;;;;;4.93;3.38;;;;;;;;;;4998927;28;20044;-57
2021/04/27 04:35:56;;;;;;;5.07;3.05;;;;;;;;;;5002943;28;20087;-59
2021/04/27 04:38:27;;;;;;;5.05;3.20;;;;;;;;;;4999400;28;20037;-59
2021/04/27 04:40:58;;;;;;;5.70;3.55;;;;;;;;;;5000850;28;20060;-57
2021/04/27 04:43:28;;;;;;;8.18;3.35;;;;;;;;;;5006078;28;20033;-58
2021/04/27 04:45:56;;;;;;;4.43;2.75;;;;;;;;;;5001216;28;20036;-58
2021/04/27 04:48:21;;;;;;;6.78;3.08;;;;;;;;;;5001553;28;20896;-58
2021/04/27 04:50:47;;;;;;;7.03;3.78;;;;;;;;;;5000623;28;20112;-58
2021/04/27 04:53:16;;;;;;;6.88;2.78;;;;;;;;;;4998816;28;20053;-58
2021/04/27 04:55:42;;;;;;;5.75;3.33;;;;;;;;;;4988881;28;20038;-58
2021/04/27 04:58:10;;;;;;;4.15;3.00;;;;;;;;;;4999083;28;20083;-58
2021/04/27 05:00:38;;;;;;;3.90;2.90;;;;;;;;;;4999862;28;20718;-59
2021/04/27 05:03:06;;;;;;;3.42;2.50;;;;;;;;;;4998584;28;20627;-59
2021/04/27 05:05:34;;;;;;;4.50;3.08;;;;;;;;;;5001111;28;20041;-59
2021/04/27 05:08:08;;;;;;;4.07;2.67;;;;;;;;;;4973462;28;21025;-57
2021/04/27 05:10:36;;;;;;;4.65;2.53;;;;;;;;;;4998889;28;20033;-58
2021/04/27 05:13:04;;;;;;;5.45;2.80;;;;;;;;;;5002041;28;20045;-58
2021/04/27 05:15:30;;;;;;;4.68;2.58;;;;;;;;;;5000176;28;20068;-58
2021/04/27 05:18:00;;;;;;;6.65;2.58;;;;;;;;;;4998970;28;20593;-59
2021/04/27 05:20:28;;;;;;;5.20;2.40;;;;;;;;;;5000401;28;20819;-59
2021/04/27 05:22:54;;;;;;;4.20;2.55;;;;;;;;;;4998457;28;20034;-59
2021/04/27 05:25:23;;;;;;;8.20;2.25;;;;;;;;;;4998734;28;20030;-59
2021/04/27 05:27:48;;;;;;;3.65;2.40;;;;;;;;;;4985761;28;20030;-59
2021/04/27 05:30:16;;;;;;;5.20;2.33;;;;;;;;;;5000429;28;20072;-61
2021/04/27 05:32:43;;;;;;;2.53;1.98;;;;;;;;;;5002504;28;20040;-59
2021/04/27 05:35:09;;;;;;;4.63;2.58;;;;;;;;;;5000469;28;20026;-59
2021/04/27 05:37:35;;;;;;;3.70;1.95;;;;;;;;;;5000304;28;20037;-59
2021/04/27 05:40:04;;;;;;;4.15;2.47;;;;;;;;;;4999002;28;20197;-59
2021/04/27 05:42:32;;;;;;;5.15;1.85;;;;;;;;;;5000863;28;20032;-59
2021/04/27 05:44:58;;;;;;;7.05;2.40;;;;;;;;;;4999839;28;20025;-59
2021/04/27 05:47:26;;;;;;;5.55;2.58;;;;;;;;;;4984355;28;20056;-58
2021/04/27 05:49:54;;;;;;;2.90;2.20;;;;;;;;;;4981860;28;20045;-58
2021/04/27 05:52:20;;;;;;;4.05;2.05;;;;;;;;;;5002657;28;20033;-58
2021/04/27 05:54:46;;;;;;;3.50;2.08;;;;;;;;;;4994821;28;20128;-58
2021/04/27 05:57:14;;;;;;;4.55;2.03;;;;;;;;;;4996538;28;20665;-57
2021/04/27 05:59:40;;;;;;;8.25;2.38;;;;;;;;;;4997096;28;20363;-59
2021/04/27 06:02:09;;;;;;;2.75;1.83;;;;;;;;;;4983331;28;20049;-58
2021/04/27 06:04:37;;;;;;;4.10;2.03;;;;;;;;;;4979018;28;20095;-58
2021/04/27 06:07:03;;;;;;;3.90;1.92;;;;;;;;;;4998161;28;20490;-58
2021/04/27 06:09:30;;;;;;;2.83;1.85;;;;;;;;;;5004128;28;20040;-59
2021/04/27 06:11:57;;;;;;;4.97;1.75;;;;;;;;;;5003223;28;21975;-63
2021/04/27 06:14:23;;;;;;;3.33;1.98;;;;;;;;;;5004704;28;22068;-59
2021/04/27 06:16:54;;;;;;;2.53;1.60;;;;;;;;;;5008311;28;20041;-58
2021/04/27 06:19:20;;;;;;;7.13;1.90;;;;;;;;;;5006197;28;20052;-59
2021/04/27 06:21:47;;;;;;;4.22;2.10;;;;;;;;;;4990929;28;20046;-59
2021/04/27 06:24:12;;;;;;;2.95;1.77;;;;;;;;;;5004177;28;20052;-59
2021/04/27 06:26:38;;;;;;;3.33;1.77;;;;;;;;;;5003919;28;20037;-57
2021/04/27 06:29:04;;;;;;;2.35;1.63;;;;;;;;;;5002088;28;20029;-58
2021/04/27 06:31:30;;;;;;;3.33;1.80;;;;;;;;;;5001120;28;20083;-58
2021/04/27 06:33:56;;;;;;;3.72;1.73;;;;;;;;;;4992730;28;20677;-59
2021/04/27 06:36:24;;;;;;;4.63;1.73;;;;;;;;;;4975245;28;20117;-59
2021/04/27 06:38:53;;;;;;;6.35;1.65;;;;;;;;;;5005009;28;20576;-58
2021/04/27 06:41:22;;;;;;;2.58;1.38;;;;;;;;;;5000887;28;20130;-59
2021/04/27 06:43:49;;;;;;;1.75;1.42;;;;;;;;;;5003188;28;22185;-59
2021/04/27 06:46:18;;;;;;;3.13;1.40;;;;;;;;;;5005093;28;20144;-60
2021/04/27 06:48:43;;;;;;;2.53;1.75;;;;;;;;;;5007427;28;20026;-59
2021/04/27 06:51:12;;;;;;;5.32;2.08;;;;;;;;;;5001338;28;20033;-59
2021/04/27 06:53:37;;;;;;;3.85;1.85;;;;;;;;;;4988657;28;20076;-60
2021/04/27 06:56:04;;;;;;;4.90;1.60;;;;;;;;;;5003776;28;20041;-60
2021/04/27 06:58:34;;;;;;;1.80;1.60;;;;;;;;;;4989563;28;20045;-59
2021/04/27 07:01:03;;;;;;;3.67;1.33;;;;;;;;;;5002677;28;20202;-58
2021/04/27 07:03:31;;;;;;;3.97;1.23;;;;;;;;;;4993801;28;20164;-58
2021/04/27 07:05:57;;;;;;;1.23;1.13;;;;;;;;;;5001844;28;20033;-59
2021/04/27 07:08:22;;;;;;;4.63;0.93;;;;;;;;;;4997859;28;20118;-59
2021/04/27 07:10:53;;;;;;;2.10;1.15;;;;;;;;;;5001828;28;20021;-60
2021/04/27 07:13:21;;;;;;;1.70;1.00;;;;;;;;;;5002516;28;20394;-58
2021/04/27 07:15:47;;;;;;;2.25;1.10;;;;;;;;;;5004207;28;20043;-59
2021/04/27 07:18:16;;;;;;;1.73;1.20;;;;;;;;;;5001254;28;20044;-59
2021/04/27 07:20:45;;;;;;;1.02;0.90;;;;;;;;;;5000578;28;20038;-59
2021/04/27 07:23:15;;;;;;;2.45;1.20;;;;;;;;;;5000544;28;20110;-59
2021/04/27 07:25:43;;;;;;;2.92;1.38;;;;;;;;;;4999587;28;20030;-60
2021/04/27 07:28:10;;;;;;;1.30;0.98;;;;;;;;;;5002370;28;20111;-63
2021/04/27 07:30:36;;;;;;;2.63;1.10;;;;;;;;;;5001716;28;20042;-59
2021/04/27 07:33:03;;;;;;;1.85;1.27;;;;;;;;;;5007196;28;20044;-60
2021/04/27 07:35:30;;;;;;;1.20;1.10;;;;;;;;;;5004227;28;20029;-58
2021/04/27 07:38:00;;;;;;;2.55;1.33;;;;;;;;;;5001862;28;20034;-60
2021/04/27 07:40:30;;;;;;;3.45;0.85;;;;;;;;;;5002114;28;20572;-59
2021/04/27 07:42:56;;;;;;;5.80;1.02;;;;;;;;;;5001227;28;20029;-59
2021/04/27 07:45:30;;;;;;;5.28;1.10;;;;;;;;;;5001518;28;20038;-58
2021/04/27 07:47:59;;;;;;;6.03;1.20;;;;;;;;;;5000197;28;20026;-59
2021/04/27 07:50:28;;;;;;;4.10;1.30;;;;;;;;;;4997024;28;20038;-59
2021/04/27 07:52:54;;;;;;;4.43;1.30;;;;;;;;;;5003063;28;20037;-60
2021/04/27 07:55:23;;;;;;;2.50;1.40;;;;;;;;;;5000024;28;20137;-59
2021/04/27 07:57:52;;;;;;;4.60;1.70;;;;;;;;;;4999422;28;20762;-59
2021/04/27 08:00:18;;;;;;;1.20;1.10;;;;;;;;;;4999797;28;20052;-61
2021/04/27 08:02:44;;;;;;;6.90;0.93;;;;;;;;;;5001120;28;20520;-58
2021/04/27 08:05:10;;;;;;;2.75;1.23;;;;;;;;;;5014312;28;20045;-58
2021/04/27 08:07:39;;;;;;;3.05;1.52;;;;;;;;;;5002054;28;20029;-60
2021/04/27 08:10:08;;;;;;;1.67;1.20;;;;;;;;;;5001130;28;20026;-59
2021/04/27 08:12:36;;;;;;;1.63;1.08;;;;;;;;;;4998407;28;20026;-59
2021/04/27 08:15:02;;;;;;;1.40;1.10;;;;;;;;;;5001427;28;20053;-59
2021/04/27 08:17:28;;;;;;;2.55;1.38;;;;;;;;;;5001037;28;20061;-59
2021/04/27 08:19:57;;;;;;;8.60;1.40;;;;;;;;;;5003281;28;20121;-59
2021/04/27 08:22:28;;;;;;;3.20;1.45;;;;;;;;;;5001872;28;21015;-59
2021/04/27 08:24:54;;;;;;;4.35;1.25;;;;;;;;;;5003634;28;20156;-59
2021/04/27 08:27:20;;;;;;;4.22;1.38;;;;;;;;;;5001611;28;20041;-59
2021/04/27 08:29:45;;;;;;;3.47;1.40;;;;;;;;;;4991040;28;20045;-61
2021/04/27 08:32:12;;;;;;;6.28;1.42;;;;;;;;;;4967236;28;20160;-59
2021/04/27 08:34:40;;;;;;;5.13;1.88;;;;;;;;;;5003692;28;20029;-58
2021/04/27 08:37:05;;;;;;;1.45;1.20;;;;;;;;;;4999542;28;20421;-59
2021/04/27 08:39:31;;;;;;;1.45;1.17;;;;;;;;;;5000564;28;20694;-60
2021/04/27 08:41:57;;;;;;;1.38;1.27;;;;;;;;;;4987512;28;20628;-59
2021/04/27 08:44:25;;;;;;;2.88;1.33;;;;;;;;;;4999888;28;20108;-59
2021/04/27 08:46:50;;;;;;;4.13;1.63;;;;;;;;;;4999806;28;20065;-59
2021/04/27 08:49:22;;;;;;;4.28;1.30;;;;;;;;;;5000657;28;20041;-60
2021/04/27 08:51:49;;;;;;;3.35;1.50;;;;;;;;;;4999138;28;20037;-60
2021/04/27 08:54:16;;;;;;;4.97;1.35;;;;;;;;;;5000355;28;20030;-60
2021/04/27 08:56:45;;;;;;;4.55;1.50;;;;;;;;;;4998872;28;20033;-59
2021/04/27 08:59:11;;;;;;;3.05;1.30;;;;;;;;;;4999563;28;20045;-59
2021/04/27 09:01:37;;;;;;;1.42;1.20;;;;;;;;;;4998904;28;20474;-59
2021/04/27 09:04:03;;;;;;;2.78;1.13;;;;;;;;;;4997294;28;20029;-58
2021/04/27 09:06:28;;;;;;;5.00;1.52;;;;;;;;;;4983714;28;20140;-59
2021/04/27 09:08:58;;;;;;;5.25;1.48;;;;;;;;;;5004868;28;20370;-59
2021/04/27 09:11:34;;;;;;;2.97;1.45;;;;;;;;;;4998141;28;20033;-60
2021/04/27 09:14:09;;;;;;;3.30;1.75;;;;;;;;;;4999486;28;20069;-59
2021/04/27 09:16:35;;;;;;;5.97;1.50;;;;;;;;;;4999452;28;20034;-59
2021/04/27 09:19:01;;;;;;;2.80;1.40;;;;;;;;;;5000111;28;20025;-58
2021/04/27 09:21:33;;;;;;;1.10;1.00;;;;;;;;;;4997694;28;20037;-59
2021/04/27 09:24:12;;;;;;;2.25;1.40;;;;;;;;;;5004319;28;20037;-59
2021/04/27 09:26:39;;;;;;;1.50;1.17;;;;;;;;;;5000698;28;20100;-59
2021/04/27 09:29:07;;;;;;;3.45;1.20;;;;;;;;;;5004413;28;20112;-59
2021/04/27 09:31:34;;;;;;;2.70;1.10;;;;;;;;;;4999994;28;20033;-59
2021/04/27 09:34:19;;;;;;;2.13;1.17;;;;;;;;;;5015153;28;20033;-58
2021/04/27 09:36:45;;;;;;;2.55;1.30;;;;;;;;;;4998786;28;20026;-58
2021/04/27 09:39:11;;;;;;;2.92;1.45;;;;;;;;;;5000395;28;21232;-60
2021/04/27 09:41:38;;;;;;;4.45;1.30;;;;;;;;;;4996911;28;21154;-58
2021/04/27 09:44:04;;;;;;;2.25;1.20;;;;;;;;;;5002139;28;20030;-59
2021/04/27 09:46:29;;;;;;;1.30;1.00;;;;;;;;;;5001680;28;20033;-59
2021/04/27 09:48:58;;;;;;;4.97;1.38;;;;;;;;;;4986754;28;20121;-59
2021/04/27 09:51:28;;;;;;;2.20;1.17;;;;;;;;;;5002070;28;21088;-58
2021/04/27 09:53:55;;;;;;;2.72;1.45;;;;;;;;;;5003435;28;20033;-59
2021/04/27 09:56:41;;;;;;;1.27;1.13;;;;;;;;;;5008448;28;20034;-62
2021/04/27 09:59:11;;;;;;;4.38;1.13;;;;;;;;;;4988893;28;20029;-62
2021/04/27 10:01:37;;;;;;;2.72;1.38;;;;;;;;;;4972924;28;20038;-59
2021/04/27 10:04:03;;;;;;;6.53;1.77;;;;;;;;;;5000838;28;22010;-59
2021/04/27 10:06:29;;;;;;;5.03;1.13;;;;;;;;;;4998239;28;20037;-61
2021/04/27 10:08:56;;;;;;;1.40;1.30;;;;;;;;;;5001959;28;20029;-63
2021/04/27 10:11:24;;;;;;;1.63;1.20;;;;;;;;;;4999530;28;21100;-62
2021/04/27 10:13:53;;;;;;;3.05;1.27;;;;;;;;;;5001431;28;20037;-61
2021/04/27 10:16:19;;;;;;;3.28;1.58;;;;;;;;;;5012519;28;21031;-58
2021/04/27 10:18:46;;;;;;;1.10;1.00;;;;;;;;;;5002291;28;20028;-61
2021/04/27 10:21:12;;;;;;;1.30;1.17;;;;;;;;;;5001808;28;20025;-60
2021/04/27 10:23:44;;;;;;;3.92;1.05;;;;;;;;;;5002895;28;20041;-61
2021/04/27 10:26:10;;;;;;;1.48;1.20;;;;;;;;;;5004080;28;20041;-61
2021/04/27 10:28:55;;;;;;;1.27;1.15;;;;;;;;;;5003375;28;20041;-61
2021/04/27 10:31:21;;;;;;;3.70;1.02;;;;;;;;;;5002817;28;20038;-60
2021/04/27 10:34:04;;;;;;;1.95;1.05;;;;;;;;;;5001341;28;20098;-61
2021/04/27 10:36:35;;;;;;;2.28;1.45;;;;;;;;;;4997767;28;20045;-61
2021/04/27 10:39:03;;;;;;;1.92;1.17;;;;;;;;;;5002297;28;20254;-60
2021/04/27 10:41:43;;;;;;;2.42;1.20;;;;;;;;;;4999418;28;20044;-61
2021/04/27 10:44:09;;;;;;;2.63;1.00;;;;;;;;;;5005954;28;20080;-61
2021/04/27 10:46:37;;;;;;;4.00;1.15;;;;;;;;;;4991548;28;20508;-62
2021/04/27 10:49:16;;;;;;;2.30;1.10;;;;;;;;;;5001607;28;20121;-60
2021/04/27 10:51:44;;;;;;;3.30;0.90;;;;;;;;;;4998616;28;20068;-59
2021/04/27 10:54:16;;;;;;;4.35;1.15;;;;;;;;;;5002276;28;20155;-61
2021/04/27 10:57:02;;;;;;;6.43;1.30;;;;;;;;;;5005442;28;20040;-60
2021/04/27 10:59:29;;;;;;;5.85;1.20;;;;;;;;;;5005153;28;20583;-60
2021/04/27 11:02:20;;;;;;;1.00;0.77;;;;;;;;;;4983684;28;20109;-64
2021/04/27 11:04:50;;;;;;;0.88;0.73;;;;;;;;;;5002613;28;20045;-60
2021/04/27 11:07:22;;;;;;;2.95;1.10;;;;;;;;;;4999517;28;20511;-60
2021/04/27 11:10:00;;;;;;;4.45;1.10;;;;;;;;;;4999892;28;20048;-60
2021/04/27 11:12:28;;;;;;;2.30;0.90;;;;;;;;;;4984395;28;20029;-60
2021/04/27 11:15:02;;;;;;;3.45;1.15;;;;;;;;;;5002158;28;20103;-60
2021/04/27 11:17:32;;;;;;;1.00;0.88;;;;;;;;;;5001438;28;20022;-61
2021/04/27 11:20:00;;;;;;;1.65;1.00;;;;;;;;;;5002617;28;20449;-61
2021/04/27 11:22:31;;;;;;;5.13;1.02;;;;;;;;;;5001956;28;20036;-58
2021/04/27 11:24:57;;;;;;;1.05;0.90;;;;;;;;;;5001318;28;20095;-61
2021/04/27 11:27:29;;;;;;;0.88;0.77;;;;;;;;;;5004542;28;20528;-62
2021/04/27 11:30:13;;;;;;;3.65;1.30;;;;;;;;;;5000057;28;20056;-60
2021/04/27 11:32:40;;;;;;;2.70;0.82;;;;;;;;;;4999553;28;21036;-58
2021/04/27 11:35:10;;;;;;;2.30;1.30;;;;;;;;;;5002340;28;20124;-60
2021/04/27 11:37:46;;;;;;;2.47;1.00;;;;;;;;;;4999792;28;20045;-61
2021/04/27 11:40:14;;;;;;;1.58;0.70;;;;;;;;;;4999447;28;20056;-62
2021/04/27 11:42:40;;;;;;;1.65;1.10;;;;;;;;;;4997278;28;20116;-61
2021/04/27 11:45:07;;;;;;;4.40;1.20;;;;;;;;;;5005729;28;20037;-61
2021/04/27 11:47:37;;;;;;;0.80;0.80;;;;;;;;;;5001146;28;20047;-60
2021/04/27 11:50:05;;;;;;;1.60;0.93;;;;;;;;;;5001247;28;20033;-62
2021/04/27 11:52:40;;;;;;;1.75;0.70;;;;;;;;;;5000543;28;20107;-61
2021/04/27 11:55:20;;;;;;;1.63;1.13;;;;;;;;;;4999965;28;20034;-61
2021/04/27 11:57:51;;;;;;;1.17;0.90;;;;;;;;;;4999195;28;20027;-62
2021/04/27 12:00:17;;;;;;;4.82;1.25;;;;;;;;;;4997328;28;20084;-61
2021/04/27 12:02:45;;;;;;;1.23;1.00;;;;;;;;;;4997038;28;20033;-60
2021/04/27 12:05:11;;;;;;;1.38;1.00;;;;;;;;;;4990838;28;20077;-61
2021/04/27 12:07:37;;;;;;;1.08;0.90;;;;;;;;;;4997028;28;20065;-60
2021/04/27 12:10:06;;;;;;;1.73;0.80;;;;;;;;;;5001933;28;20188;-59
2021/04/27 12:12:32;;;;;;;1.48;0.80;;;;;;;;;;4999371;28;20469;-61
2021/04/27 12:15:00;;;;;;;2.15;0.95;;;;;;;;;;4998534;28;20057;-62
2021/04/27 12:17:28;;;;;;;2.28;0.85;;;;;;;;;;5002676;28;20163;-60
2021/04/27 12:20:13;;;;;;;2.05;0.98;;;;;;;;;;5000332;28;20034;-61
2021/04/27 12:22:41;;;;;;;2.30;0.93;;;;;;;;;;4985182;28;20046;-61
2021/04/27 12:25:16;;;;;;;1.13;0.75;;;;;;;;;;5001734;28;20033;-61
2021/04/27 12:27:56;;;;;;;2.90;0.68;;;;;;;;;;4996345;28;20040;-61
2021/04/27 12:30:25;;;;;;;1.65;0.93;;;;;;;;;;5006775;28;20029;-60
2021/04/27 12:33:03;;;;;;;4.68;0.88;;;;;;;;;;4999952;28;20037;-60
2021/04/27 12:35:32;;;;;;;0.88;0.80;;;;;;;;;;5013995;28;20038;-60
2021/04/27 12:38:02;;;;;;;2.83;0.73;;;;;;;;;;4999077;28;20037;-61
2021/04/27 12:40:29;;;;;;;0.60;0.60;;;;;;;;;;4998844;28;20112;-60
2021/04/27 12:43:01;;;;;;;2.80;1.05;;;;;;;;;;4998746;28;20021;-60
2021/04/27 12:45:40;;;;;;;1.30;0.98;;;;;;;;;;5001059;28;20064;-60
2021/04/27 12:48:08;;;;;;;3.38;0.95;;;;;;;;;;4998761;28;20037;-62
2021/04/27 12:50:42;;;;;;;3.00;1.20;;;;;;;;;;5000724;28;20048;-61
2021/04/27 12:53:08;;;;;;;1.27;0.70;;;;;;;;;;5005308;28;21999;-61
2021/04/27 12:55:35;;;;;;;5.03;1.20;;;;;;;;;;5000901;28;20042;-61
2021/04/27 12:58:07;;;;;;;2.33;0.80;;;;;;;;;;4995869;28;20033;-61
2021/04/27 13:00:32;;;;;;;1.48;0.82;;;;;;;;;;5003692;28;20689;-61
2021/04/27 13:03:12;;;;;;;1.33;0.93;;;;;;;;;;4998746;28;20481;-61
2021/04/27 13:05:38;;;;;;;0.68;0.65;;;;;;;;;;4998906;28;20977;-61
2021/04/27 13:08:05;;;;;;;3.20;1.35;;;;;;;;;;4996202;28;20044;-60
2021/04/27 13:10:36;;;;;;;1.92;1.20;;;;;;;;;;4998589;28;20987;-61
2021/04/27 13:13:05;;;;;;;1.48;1.05;;;;;;;;;;4998959;28;20099;-61
2021/04/27 13:15:32;;;;;;;1.38;1.10;;;;;;;;;;5001093;28;20908;-61
2021/04/27 13:18:05;;;;;;;1.00;0.90;;;;;;;;;;5003713;28;20033;-62
2021/04/27 13:20:32;;;;;;;3.97;1.10;;;;;;;;;;5004054;28;20040;-60
2021/04/27 13:23:00;;;;;;;2.55;1.15;;;;;;;;;;5003319;28;20068;-60
2021/04/27 13:25:30;;;;;;;2.45;1.20;;;;;;;;;;4999033;28;20034;-60
2021/04/27 13:27:59;;;;;;;5.38;1.08;;;;;;;;;;4994532;28;20034;-61
2021/04/27 13:30:26;;;;;;;2.97;1.08;;;;;;;;;;4997237;28;20649;-61
2021/04/27 13:33:05;;;;;;;1.13;1.00;;;;;;;;;;4997964;28;20033;-62
2021/04/27 13:35:52;;;;;;;0.93;0.77;;;;;;;;;;4998082;28;20034;-62
2021/04/27 13:38:18;;;;;;;3.13;1.63;;;;;;;;;;4994818;28;20164;-61
2021/04/27 13:40:45;;;;;;;3.28;1.23;;;;;;;;;;5001391;28;20038;-59
2021/04/27 13:43:15;;;;;;;4.18;1.08;;;;;;;;;;5002119;28;20087;-61
2021/04/27 13:45:43;;;;;;;3.40;1.60;;;;;;;;;;4999463;28;20033;-61
2021/04/27 13:48:10;;;;;;;1.30;1.20;;;;;;;;;;5001754;28;20025;-61
2021/04/27 13:50:38;;;;;;;1.50;1.38;;;;;;;;;;4997531;28;20179;-60
2021/04/27 13:53:04;;;;;;;3.75;1.08;;;;;;;;;;4992725;28;20037;-61
2021/04/27 13:55:30;;;;;;;2.35;1.60;;;;;;;;;;4991174;28;20075;-63
2021/04/27 13:57:57;;;;;;;3.83;1.70;;;;;;;;;;4990687;28;20041;-60
2021/04/27 14:00:25;;;;;;;2.38;1.50;;;;;;;;;;4995264;28;20026;-62
2021/04/27 14:02:54;;;;;;;1.40;1.30;;;;;;;;;;4977543;28;20034;-63
2021/04/27 14:05:23;;;;;;;1.92;1.20;;;;;;;;;;4980028;28;20034;-61
2021/04/27 14:07:48;;;;;;;2.38;1.27;;;;;;;;;;4994656;28;20034;-61
2021/04/27 14:10:35;;;;;;;2.05;1.27;;;;;;;;;;4995550;28;20457;-61
2021/04/27 14:13:19;;;;;;;1.75;1.27;;;;;;;;;;4993514;28;21130;-61
2021/04/27 14:16:06;;;;;;;1.13;1.02;;;;;;;;;;4998401;28;20037;-59
2021/04/27 14:18:52;;;;;;;1.48;1.13;;;;;;;;;;5000522;28;20040;-60
2021/04/27 14:21:37;;;;;;;2.92;1.30;;;;;;;;;;4994631;28;20104;-60
2021/04/27 14:24:23;;;;;;;5.43;1.20;;;;;;;;;;4982169;28;20495;-60
2021/04/27 14:27:08;;;;;;;2.55;1.52;;;;;;;;;;4996219;28;20056;-61
2021/04/27 14:29:51;;;;;;;1.33;1.10;;;;;;;;;;4996144;28;21305;-61
2021/04/27 14:32:35;;;;;;;1.42;1.20;;;;;;;;;;5002038;28;20053;-60
2021/04/27 14:35:21;;;;;;;2.88;1.15;;;;;;;;;;4999925;28;20945;-60
2021/04/27 14:38:08;;;;;;;1.90;1.15;;;;;;;;;;5001739;28;20095;-61
2021/04/27 14:40:52;;;;;;;2.33;1.10;;;;;;;;;;5001226;28;20140;-60
2021/04/27 14:43:37;;;;;;;3.53;2.47;;;;;;;;;;5000145;28;21068;-61
2021/04/27 14:46:21;;;;;;;1.27;0.93;;;;;;;;;;5000149;28;20056;-60
2021/04/27 14:49:05;;;;;;;1.63;1.20;;;;;;;;;;4997727;28;20058;-60
2021/04/27 14:51:50;;;;;;;1.80;1.00;;;;;;;;;;5000084;28;20095;-60
2021/04/27 14:54:33;;;;;;;3.20;1.42;;;;;;;;;;5001509;28;20124;-63